Time;durP1;ratioP1;P1;durP2;ratioP2;P2;SDS_P1;SDS_P2;PMS_P1;PMS_P2;Temp;Humidity;BMP_temperature;BMP_pressure;BME280_temperature;BME280_humidity;BME280_pressure;Samples;Min_cycle;Max_cycle;Signal;HPM_P1;HPM_P2
2023/09/25 00:01:00;;;;;;;17.27;10.40;;;;;;;;;;5092502;28;20115;-53
2023/09/25 00:03:26;;;;;;;16.48;10.70;;;;;;;;;;5092594;28;20024;-54
2023/09/25 00:05:52;;;;;;;16.98;10.38;;;;;;;;;;5092662;28;20596;-51
2023/09/25 00:08:18;;;;;;;17.25;10.07;;;;;;;;;;5074530;28;20097;-56
2023/09/25 00:10:44;;;;;;;17.83;10.00;;;;;;;;;;5074153;28;20028;-57
2023/09/25 00:13:10;;;;;;;15.15;9.82;;;;;;;;;;5092584;28;20024;-54
2023/09/25 00:15:41;;;;;;;17.02;10.60;;;;;;;;;;5074551;28;20024;-55
2023/09/25 00:18:07;;;;;;;17.30;9.75;;;;;;;;;;5092495;28;20489;-52
2023/09/25 00:20:33;;;;;;;16.60;9.90;;;;;;;;;;5091982;28;20024;-52
2023/09/25 00:23:00;;;;;;;16.95;10.68;;;;;;;;;;5092498;28;20039;-48
2023/09/25 00:25:28;;;;;;;18.27;10.15;;;;;;;;;;5092375;28;20032;-50
2023/09/25 00:27:54;;;;;;;16.30;10.13;;;;;;;;;;5092498;28;20111;-55
2023/09/25 00:30:20;;;;;;;17.60;10.02;;;;;;;;;;5092035;28;20023;-56
2023/09/25 00:32:46;;;;;;;17.00;10.02;;;;;;;;;;5092053;28;20024;-55
2023/09/25 00:35:13;;;;;;;16.67;10.27;;;;;;;;;;5073992;28;20034;-56
2023/09/25 00:37:39;;;;;;;16.50;9.93;;;;;;;;;;5073929;28;20023;-50
2023/09/25 00:40:13;;;;;;;16.85;9.93;;;;;;;;;;5092014;28;20489;-51
2023/09/25 00:42:40;;;;;;;18.35;9.63;;;;;;;;;;5092006;28;20028;-52
2023/09/25 00:45:06;;;;;;;16.85;9.38;;;;;;;;;;5092096;28;20024;-50
2023/09/25 00:47:33;;;;;;;15.82;10.00;;;;;;;;;;5091991;28;20398;-55
2023/09/25 00:49:59;;;;;;;15.57;10.00;;;;;;;;;;5091723;28;20020;-56
2023/09/25 00:52:25;;;;;;;15.90;9.38;;;;;;;;;;5073695;28;20554;-57
2023/09/25 00:54:52;;;;;;;16.52;9.40;;;;;;;;;;5073582;28;20104;-52
2023/09/25 00:57:18;;;;;;;16.27;9.57;;;;;;;;;;5091804;28;20052;-53
2023/09/25 00:59:44;;;;;;;16.13;9.95;;;;;;;;;;5091880;28;20422;-50
2023/09/25 01:02:10;;;;;;;16.35;10.20;;;;;;;;;;5091724;28;20103;-52
2023/09/25 01:04:37;;;;;;;17.50;10.30;;;;;;;;;;5092048;28;20016;-53
2023/09/25 01:07:04;;;;;;;16.92;10.10;;;;;;;;;;5091823;28;20028;-55
2023/09/25 01:09:30;;;;;;;16.40;10.02;;;;;;;;;;5091734;28;20103;-52
2023/09/25 01:11:56;;;;;;;16.35;10.63;;;;;;;;;;5091512;28;20486;-52
2023/09/25 01:14:23;;;;;;;15.52;9.95;;;;;;;;;;5091673;28;20012;-54
2023/09/25 01:16:48;;;;;;;17.40;9.98;;;;;;;;;;5091696;28;20026;-53
2023/09/25 01:19:14;;;;;;;16.67;10.43;;;;;;;;;;5091520;28;20024;-51
2023/09/25 01:21:47;;;;;;;17.60;10.20;;;;;;;;;;5073005;28;20131;-50
2023/09/25 01:24:13;;;;;;;17.13;11.07;;;;;;;;;;5091547;28;20354;-51
2023/09/25 01:26:39;;;;;;;18.00;11.60;;;;;;;;;;5073160;28;20024;-50
2023/09/25 01:29:05;;;;;;;16.85;10.23;;;;;;;;;;5091258;28;20023;-59
2023/09/25 01:31:31;;;;;;;17.27;10.45;;;;;;;;;;5072908;28;20509;-52
2023/09/25 01:33:57;;;;;;;19.05;11.68;;;;;;;;;;5073128;28;20113;-54
2023/09/25 01:36:23;;;;;;;17.63;10.95;;;;;;;;;;5091573;28;20024;-50
2023/09/25 01:38:49;;;;;;;18.75;10.88;;;;;;;;;;5091190;28;20051;-54
2023/09/25 01:41:15;;;;;;;15.98;10.48;;;;;;;;;;5073020;28;20073;-54
2023/09/25 01:43:43;;;;;;;15.63;10.25;;;;;;;;;;5073224;28;20438;-50
2023/09/25 01:46:09;;;;;;;17.00;10.07;;;;;;;;;;5072984;28;20016;-51
2023/09/25 01:48:35;;;;;;;16.73;10.70;;;;;;;;;;5073008;28;20051;-55
2023/09/25 01:51:07;;;;;;;17.20;9.73;;;;;;;;;;5072955;28;20380;-51
2023/09/25 01:53:35;;;;;;;16.80;9.75;;;;;;;;;;5091201;28;20020;-51
2023/09/25 01:56:08;;;;;;;16.83;9.90;;;;;;;;;;5091344;28;20039;-52
2023/09/25 01:58:34;;;;;;;15.40;9.75;;;;;;;;;;5091107;28;20028;-58
2023/09/25 02:01:00;;;;;;;15.90;9.77;;;;;;;;;;5091068;28;20108;-55
2023/09/25 02:03:26;;;;;;;16.75;9.48;;;;;;;;;;5091123;28;20444;-53
2023/09/25 02:05:56;;;;;;;15.95;9.68;;;;;;;;;;5091107;28;20020;-49
2023/09/25 02:08:22;;;;;;;16.17;9.80;;;;;;;;;;5074197;28;20032;-51
2023/09/25 02:10:48;;;;;;;18.17;10.00;;;;;;;;;;5094891;28;20035;-53
2023/09/25 02:13:13;;;;;;;16.27;10.02;;;;;;;;;;5076907;28;20032;-50
2023/09/25 02:15:40;;;;;;;15.80;9.52;;;;;;;;;;5076654;28;20063;-49
2023/09/25 02:18:08;;;;;;;16.35;9.77;;;;;;;;;;5076744;28;20561;-50
2023/09/25 02:20:34;;;;;;;18.27;10.00;;;;;;;;;;5095142;28;20033;-52
2023/09/25 02:23:00;;;;;;;16.73;9.77;;;;;;;;;;5094910;28;20084;-51
2023/09/25 02:25:26;;;;;;;16.48;9.63;;;;;;;;;;5076984;28;20020;-53
2023/09/25 02:27:52;;;;;;;16.98;9.07;;;;;;;;;;5094850;28;20119;-50
2023/09/25 02:30:18;;;;;;;18.52;9.80;;;;;;;;;;5094392;28;20154;-52
2023/09/25 02:32:45;;;;;;;16.27;9.27;;;;;;;;;;5094409;28;20047;-50
2023/09/25 02:35:11;;;;;;;16.50;9.32;;;;;;;;;;5076181;28;20020;-51
2023/09/25 02:37:37;;;;;;;16.15;10.02;;;;;;;;;;5094721;28;20481;-50
2023/09/25 02:40:07;;;;;;;15.57;9.45;;;;;;;;;;5095046;28;20035;-52
2023/09/25 02:42:33;;;;;;;18.85;10.15;;;;;;;;;;5095109;28;20473;-52
2023/09/25 02:44:59;;;;;;;16.60;9.20;;;;;;;;;;5094995;28;20012;-52
2023/09/25 02:47:26;;;;;;;18.83;10.20;;;;;;;;;;5076612;28;20531;-53
2023/09/25 02:49:52;;;;;;;16.65;9.65;;;;;;;;;;5094635;28;20051;-54
2023/09/25 02:52:18;;;;;;;17.67;9.35;;;;;;;;;;5094675;28;20028;-52
2023/09/25 02:54:44;;;;;;;17.10;9.40;;;;;;;;;;5076666;28;20463;-49
2023/09/25 02:57:10;;;;;;;19.52;9.80;;;;;;;;;;5094558;28;20028;-49
2023/09/25 02:59:36;;;;;;;17.33;9.50;;;;;;;;;;5094546;28;20049;-48
2023/09/25 03:02:02;;;;;;;18.95;9.95;;;;;;;;;;5094592;28;20107;-51
2023/09/25 03:04:28;;;;;;;18.02;9.75;;;;;;;;;;5094634;28;20027;-53
2023/09/25 03:06:54;;;;;;;17.13;9.68;;;;;;;;;;5094498;28;20162;-54
2023/09/25 03:09:20;;;;;;;19.10;10.30;;;;;;;;;;5076507;28;20130;-54
2023/09/25 03:11:46;;;;;;;18.38;10.02;;;;;;;;;;5094843;28;20024;-53
2023/09/25 03:14:13;;;;;;;17.42;9.50;;;;;;;;;;5094574;28;20363;-49
2023/09/25 03:16:40;;;;;;;16.55;9.88;;;;;;;;;;5094226;28;20027;-52
2023/09/25 03:19:06;;;;;;;16.98;9.82;;;;;;;;;;5093901;28;20035;-52
2023/09/25 03:21:32;;;;;;;20.25;10.80;;;;;;;;;;5074913;28;20028;-48
2023/09/25 03:23:58;;;;;;;17.02;10.07;;;;;;;;;;5094154;28;20031;-54
2023/09/25 03:26:24;;;;;;;19.13;10.02;;;;;;;;;;5093926;28;20020;-50
2023/09/25 03:28:50;;;;;;;26.45;10.77;;;;;;;;;;5094249;28;20543;-50
2023/09/25 03:31:16;;;;;;;17.30;10.10;;;;;;;;;;5093785;28;20055;-51
2023/09/25 03:33:42;;;;;;;17.95;10.20;;;;;;;;;;5093913;28;20390;-53
2023/09/25 03:36:08;;;;;;;17.17;10.07;;;;;;;;;;5093783;28;20032;-52
2023/09/25 03:38:36;;;;;;;18.35;10.40;;;;;;;;;;5075583;28;20024;-50
2023/09/25 03:41:02;;;;;;;17.40;10.30;;;;;;;;;;5093479;28;20055;-52
2023/09/25 03:43:28;;;;;;;16.90;10.45;;;;;;;;;;5093850;28;20028;-52
2023/09/25 03:45:55;;;;;;;17.52;10.20;;;;;;;;;;5093602;28;20500;-50
2023/09/25 03:48:21;;;;;;;16.52;10.02;;;;;;;;;;5093554;28;20108;-53
2023/09/25 03:50:47;;;;;;;18.15;10.32;;;;;;;;;;5093233;28;20559;-52
2023/09/25 03:53:13;;;;;;;18.42;9.98;;;;;;;;;;5075397;28;20024;-52
2023/09/25 03:55:39;;;;;;;18.88;10.50;;;;;;;;;;5075357;28;20401;-51
2023/09/25 03:58:05;;;;;;;18.05;9.88;;;;;;;;;;5093243;28;20024;-50
2023/09/25 04:00:31;;;;;;;19.52;11.30;;;;;;;;;;5093047;28;20115;-48
2023/09/25 04:02:57;;;;;;;17.55;10.80;;;;;;;;;;5093129;28;20028;-51
2023/09/25 04:05:23;;;;;;;18.08;10.65;;;;;;;;;;5093344;28;20395;-50
2023/09/25 04:07:49;;;;;;;16.85;10.13;;;;;;;;;;5093154;28;20055;-51
2023/09/25 04:10:15;;;;;;;18.73;10.45;;;;;;;;;;5092808;28;20115;-50
2023/09/25 04:12:41;;;;;;;18.73;10.15;;;;;;;;;;5093063;28;20556;-51
2023/09/25 04:15:12;;;;;;;20.92;10.82;;;;;;;;;;5093245;28;20024;-53
2023/09/25 04:17:39;;;;;;;17.02;9.48;;;;;;;;;;5092854;28;20053;-58
2023/09/25 04:20:16;;;;;;;23.70;11.00;;;;;;;;;;5092657;28;20046;-49
2023/09/25 04:22:42;;;;;;;17.30;10.00;;;;;;;;;;5074659;28;20032;-51
2023/09/25 04:25:10;;;;;;;17.55;10.57;;;;;;;;;;5074702;28;20101;-55
2023/09/25 04:27:36;;;;;;;20.02;10.82;;;;;;;;;;5093324;28;20051;-50
2023/09/25 04:30:03;;;;;;;19.30;11.10;;;;;;;;;;5092595;28;20052;-50
2023/09/25 04:32:29;;;;;;;17.75;10.82;;;;;;;;;;5092564;28;20556;-54
2023/09/25 04:34:55;;;;;;;21.15;11.63;;;;;;;;;;5092756;28;20032;-53
2023/09/25 04:37:21;;;;;;;20.63;11.45;;;;;;;;;;5092659;28;20458;-54
2023/09/25 04:39:47;;;;;;;18.30;11.85;;;;;;;;;;5092512;28;20089;-53
2023/09/25 04:42:13;;;;;;;18.92;11.25;;;;;;;;;;5092459;28;20020;-55
2023/09/25 04:44:40;;;;;;;18.88;10.63;;;;;;;;;;5092642;28;20020;-54
2023/09/25 04:47:06;;;;;;;20.55;11.05;;;;;;;;;;5092634;28;20021;-52
2023/09/25 04:49:32;;;;;;;22.45;12.57;;;;;;;;;;5092505;28;20024;-48
2023/09/25 04:51:58;;;;;;;20.23;10.73;;;;;;;;;;5074074;28;20494;-51
2023/09/25 04:54:24;;;;;;;22.38;11.27;;;;;;;;;;5092537;28;20061;-53
2023/09/25 04:56:50;;;;;;;20.33;10.50;;;;;;;;;;5092443;28;20031;-53
2023/09/25 04:59:16;;;;;;;19.45;11.35;;;;;;;;;;5073770;28;20024;-52
2023/09/25 05:01:42;;;;;;;22.08;12.93;;;;;;;;;;5091845;28;20069;-50
2023/09/25 05:04:09;;;;;;;19.02;11.80;;;;;;;;;;5091850;28;20385;-52
2023/09/25 05:06:35;;;;;;;22.35;11.63;;;;;;;;;;5076375;28;20052;-51
2023/09/25 05:09:01;;;;;;;17.77;11.63;;;;;;;;;;5071611;28;20033;-51
2023/09/25 05:11:27;;;;;;;20.30;12.35;;;;;;;;;;5071347;28;20052;-52
2023/09/25 05:13:53;;;;;;;18.70;11.63;;;;;;;;;;5071715;28;20063;-51
2023/09/25 05:16:19;;;;;;;19.90;11.95;;;;;;;;;;5071712;28;20496;-54
2023/09/25 05:18:45;;;;;;;20.58;12.27;;;;;;;;;;5071550;28;20031;-52
2023/09/25 05:21:11;;;;;;;17.67;11.60;;;;;;;;;;5085719;23;20024;-61
2023/09/25 05:23:37;;;;;;;18.80;12.50;;;;;;;;;;5087024;28;20484;-64
2023/09/25 05:26:03;;;;;;;22.77;12.75;;;;;;;;;;5090688;28;20020;-62
2023/09/25 05:28:29;;;;;;;20.02;12.90;;;;;;;;;;5091351;28;20024;-63
2023/09/25 05:30:56;;;;;;;20.77;12.60;;;;;;;;;;5090924;28;20020;-53
2023/09/25 05:33:22;;;;;;;24.92;12.95;;;;;;;;;;5070764;28;20107;-60
2023/09/25 05:35:48;;;;;;;20.95;12.18;;;;;;;;;;5070489;28;20028;-61
2023/09/25 05:38:14;;;;;;;21.08;11.93;;;;;;;;;;5070081;28;20101;-62
2023/09/25 05:40:40;;;;;;;20.63;12.77;;;;;;;;;;5061093;28;20025;-63
2023/09/25 05:43:06;;;;;;;19.85;12.80;;;;;;;;;;5049414;28;20020;-62
2023/09/25 05:45:32;;;;;;;25.33;12.30;;;;;;;;;;5049923;28;20025;-62
2023/09/25 05:47:58;;;;;;;20.30;12.43;;;;;;;;;;5049420;28;20037;-60
2023/09/25 05:50:28;;;;;;;20.85;13.55;;;;;;;;;;5050094;28;20036;-57
2023/09/25 05:52:54;;;;;;;20.58;12.60;;;;;;;;;;5050585;28;20029;-62
2023/09/25 05:55:21;;;;;;;21.33;13.38;;;;;;;;;;5050091;28;20041;-57
2023/09/25 05:57:47;;;;;;;21.33;13.20;;;;;;;;;;5058802;28;20065;-61
2023/09/25 06:00:15;;;;;;;19.35;12.40;;;;;;;;;;5070369;28;20582;-57
2023/09/25 06:02:42;;;;;;;23.95;13.75;;;;;;;;;;5071009;28;20040;-61
2023/09/25 06:05:09;;;;;;;19.10;12.27;;;;;;;;;;5070551;28;20016;-60
2023/09/25 06:07:35;;;;;;;18.77;12.43;;;;;;;;;;5070228;28;20033;-62
2023/09/25 06:10:04;;;;;;;18.58;12.60;;;;;;;;;;5070246;28;20032;-62
2023/09/25 06:12:30;;;;;;;20.48;13.98;;;;;;;;;;5068482;28;20025;-62
2023/09/25 06:14:56;;;;;;;19.30;13.20;;;;;;;;;;5070291;28;20036;-62
2023/09/25 06:17:26;;;;;;;20.95;13.27;;;;;;;;;;5070151;28;20397;-58
2023/09/25 06:19:53;;;;;;;22.70;13.43;;;;;;;;;;5069932;28;20016;-59
2023/09/25 06:22:19;;;;;;;18.15;12.52;;;;;;;;;;5070130;28;20060;-60
2023/09/25 06:24:45;;;;;;;20.65;12.80;;;;;;;;;;5070536;28;20025;-60
2023/09/25 06:27:11;;;;;;;17.80;12.40;;;;;;;;;;5070833;28;20025;-62
2023/09/25 06:29:37;;;;;;;17.83;12.73;;;;;;;;;;5070304;28;20091;-57
2023/09/25 06:32:03;;;;;;;18.05;12.82;;;;;;;;;;5070745;28;20435;-60
2023/09/25 06:34:29;;;;;;;17.58;12.07;;;;;;;;;;5071495;28;20068;-61
2023/09/25 06:36:55;;;;;;;18.55;12.68;;;;;;;;;;5070882;28;20402;-62
2023/09/25 06:39:21;;;;;;;19.75;12.95;;;;;;;;;;5069252;28;20024;-61
2023/09/25 06:41:47;;;;;;;19.45;12.88;;;;;;;;;;5070624;28;20036;-63
2023/09/25 06:44:13;;;;;;;17.60;12.55;;;;;;;;;;5070687;28;20394;-58
2023/09/25 06:46:39;;;;;;;18.25;13.20;;;;;;;;;;5069981;28;20025;-60
2023/09/25 06:49:05;;;;;;;16.42;12.23;;;;;;;;;;5069606;28;20028;-57
2023/09/25 06:51:31;;;;;;;19.15;12.70;;;;;;;;;;5070024;28;20032;-57
2023/09/25 06:53:57;;;;;;;18.95;11.85;;;;;;;;;;5069089;28;20028;-59
2023/09/25 06:56:24;;;;;;;18.17;12.25;;;;;;;;;;5073738;28;20024;-58
2023/09/25 06:58:51;;;;;;;17.45;11.90;;;;;;;;;;5067853;28;20479;-61
2023/09/25 07:01:18;;;;;;;18.77;12.38;;;;;;;;;;5052523;28;20063;-61
2023/09/25 07:03:44;;;;;;;17.67;11.88;;;;;;;;;;5053904;28;20620;-59
2023/09/25 07:06:11;;;;;;;19.50;11.70;;;;;;;;;;5053720;28;20029;-60
2023/09/25 07:08:38;;;;;;;18.08;12.43;;;;;;;;;;5053001;28;20437;-61
2023/09/25 07:11:04;;;;;;;18.90;12.30;;;;;;;;;;5054405;28;20056;-62
2023/09/25 07:13:30;;;;;;;18.08;12.55;;;;;;;;;;5053798;28;20401;-60
2023/09/25 07:16:10;;;;;;;16.48;11.63;;;;;;;;;;5053300;28;20352;-57
2023/09/25 07:18:36;;;;;;;17.90;12.75;;;;;;;;;;5052405;28;20501;-55
2023/09/25 07:21:03;;;;;;;19.05;12.20;;;;;;;;;;5060294;28;20032;-50
2023/09/25 07:23:29;;;;;;;21.33;12.13;;;;;;;;;;5072271;28;20028;-54
2023/09/25 07:26:08;;;;;;;17.05;12.07;;;;;;;;;;5072175;28;20023;-52
2023/09/25 07:28:35;;;;;;;16.50;12.23;;;;;;;;;;5070747;28;20233;-53
2023/09/25 07:31:01;;;;;;;19.58;12.20;;;;;;;;;;5068689;28;20080;-53
2023/09/25 07:33:28;;;;;;;19.00;13.15;;;;;;;;;;5072120;28;20062;-54
2023/09/25 07:35:54;;;;;;;17.92;11.98;;;;;;;;;;5072194;28;20460;-50
2023/09/25 07:38:20;;;;;;;17.52;12.02;;;;;;;;;;5071971;28;20035;-53
2023/09/25 07:40:47;;;;;;;17.67;12.27;;;;;;;;;;5071672;28;20367;-49
2023/09/25 07:43:19;;;;;;;18.38;12.90;;;;;;;;;;5071960;28;20083;-54
2023/09/25 07:45:45;;;;;;;16.58;11.77;;;;;;;;;;5071871;28;20103;-55
2023/09/25 07:48:12;;;;;;;15.43;11.60;;;;;;;;;;5071720;28;20048;-52
2023/09/25 07:50:40;;;;;;;19.55;11.57;;;;;;;;;;5071426;28;20043;-56
2023/09/25 07:53:07;;;;;;;17.30;12.27;;;;;;;;;;5062471;28;20029;-54
2023/09/25 07:55:33;;;;;;;16.85;11.25;;;;;;;;;;5062262;28;20158;-50
2023/09/25 07:57:59;;;;;;;15.90;11.43;;;;;;;;;;5058948;28;20054;-55
2023/09/25 08:00:29;;;;;;;17.38;12.27;;;;;;;;;;5071277;28;20502;-48
2023/09/25 08:02:55;;;;;;;15.85;11.60;;;;;;;;;;5071336;28;20059;-49
2023/09/25 08:05:22;;;;;;;16.70;12.20;;;;;;;;;;5071278;28;20056;-50
2023/09/25 08:07:52;;;;;;;16.80;11.45;;;;;;;;;;5069741;28;20047;-48
2023/09/25 08:10:18;;;;;;;16.73;11.52;;;;;;;;;;5071201;28;20096;-53
2023/09/25 08:12:45;;;;;;;16.50;11.70;;;;;;;;;;5071396;28;20099;-48
2023/09/25 08:15:11;;;;;;;16.77;11.98;;;;;;;;;;5069588;28;20090;-52
2023/09/25 08:17:37;;;;;;;15.95;10.93;;;;;;;;;;5068778;28;20066;-54
2023/09/25 08:20:13;;;;;;;15.75;11.25;;;;;;;;;;5068621;28;20355;-55
2023/09/25 08:22:40;;;;;;;16.92;11.50;;;;;;;;;;5068539;28;20020;-54
2023/09/25 08:25:06;;;;;;;15.65;11.20;;;;;;;;;;5067372;28;20051;-55
2023/09/25 08:27:32;;;;;;;16.60;11.20;;;;;;;;;;5068810;28;20533;-54
2023/09/25 08:29:58;;;;;;;16.98;11.50;;;;;;;;;;5069198;28;20099;-53
2023/09/25 08:32:24;;;;;;;16.08;11.70;;;;;;;;;;5070997;28;20039;-52
2023/09/25 08:34:50;;;;;;;16.05;11.15;;;;;;;;;;5070883;28;20465;-51
2023/09/25 08:37:16;;;;;;;17.70;11.43;;;;;;;;;;5070566;28;20028;-54
2023/09/25 08:39:42;;;;;;;15.05;11.20;;;;;;;;;;5070689;28;20390;-51
2023/09/25 08:42:08;;;;;;;16.50;11.68;;;;;;;;;;5070497;28;20039;-54
2023/09/25 08:44:36;;;;;;;21.73;14.13;;;;;;;;;;5070986;28;20021;-53
2023/09/25 08:47:02;;;;;;;17.48;13.07;;;;;;;;;;5070922;28;20033;-58
2023/09/25 08:49:29;;;;;;;19.63;13.57;;;;;;;;;;5070474;28;20029;-51
2023/09/25 08:51:56;;;;;;;18.17;12.63;;;;;;;;;;5070228;28;20475;-53
2023/09/25 08:54:22;;;;;;;17.98;12.40;;;;;;;;;;5070306;28;20028;-54
2023/09/25 08:56:48;;;;;;;16.38;12.00;;;;;;;;;;5070488;28;20032;-55
2023/09/25 08:59:15;;;;;;;15.98;11.90;;;;;;;;;;5070019;28;20047;-53
2023/09/25 09:01:41;;;;;;;16.85;12.40;;;;;;;;;;5070072;28;20078;-51
2023/09/25 09:04:07;;;;;;;15.85;11.70;;;;;;;;;;5070406;28;20029;-53
2023/09/25 09:06:33;;;;;;;17.13;12.27;;;;;;;;;;5070527;28;20039;-55
2023/09/25 09:08:59;;;;;;;16.58;11.52;;;;;;;;;;5070379;28;20032;-57
2023/09/25 09:11:25;;;;;;;18.20;12.52;;;;;;;;;;5069910;28;20565;-53
2023/09/25 09:13:51;;;;;;;17.13;12.40;;;;;;;;;;5070193;28;20024;-52
2023/09/25 09:16:19;;;;;;;17.40;13.25;;;;;;;;;;5070096;28;20482;-54
2023/09/25 09:18:45;;;;;;;16.30;12.48;;;;;;;;;;5069019;28;20039;-54
2023/09/25 09:21:21;;;;;;;16.35;12.20;;;;;;;;;;5069482;28;20024;-52
2023/09/25 09:23:47;;;;;;;16.58;12.77;;;;;;;;;;5070063;28;20055;-51
2023/09/25 09:26:17;;;;;;;21.25;13.20;;;;;;;;;;5069779;28;20398;-52
2023/09/25 09:28:46;;;;;;;16.52;12.50;;;;;;;;;;5070138;28;20056;-54
2023/09/25 09:31:14;;;;;;;17.38;12.90;;;;;;;;;;5069675;28;20020;-54
2023/09/25 09:33:43;;;;;;;16.25;12.90;;;;;;;;;;5068380;28;20031;-54
2023/09/25 09:36:13;;;;;;;17.70;12.70;;;;;;;;;;5069425;28;20474;-53
2023/09/25 09:38:40;;;;;;;17.58;12.38;;;;;;;;;;5069652;28;20365;-56
2023/09/25 09:41:06;;;;;;;16.92;12.25;;;;;;;;;;5069526;28;20486;-52
2023/09/25 09:43:33;;;;;;;17.52;12.75;;;;;;;;;;5070043;28;20036;-53
2023/09/25 09:46:00;;;;;;;17.17;12.48;;;;;;;;;;5069803;28;20024;-57
2023/09/25 09:48:29;;;;;;;16.83;11.73;;;;;;;;;;5070060;28;20055;-59
2023/09/25 09:50:59;;;;;;;17.83;12.63;;;;;;;;;;5069565;28;20025;-52
2023/09/25 09:53:28;;;;;;;16.25;12.25;;;;;;;;;;5069671;28;20028;-55
2023/09/25 09:55:54;;;;;;;18.83;13.45;;;;;;;;;;5069552;28;20511;-52
2023/09/25 09:58:20;;;;;;;16.83;13.20;;;;;;;;;;5069580;28;20034;-55
2023/09/25 10:00:46;;;;;;;16.67;12.90;;;;;;;;;;5060329;28;20024;-52
2023/09/25 10:03:13;;;;;;;17.75;13.15;;;;;;;;;;5059860;28;20027;-53
2023/09/25 10:05:46;;;;;;;16.20;12.32;;;;;;;;;;5058891;28;20020;-56
2023/09/25 10:08:12;;;;;;;18.73;12.73;;;;;;;;;;5060742;28;20104;-56
2023/09/25 10:10:38;;;;;;;17.35;12.68;;;;;;;;;;5059596;28;20085;-56
2023/09/25 10:13:08;;;;;;;17.27;12.52;;;;;;;;;;5065722;28;20028;-54
2023/09/25 10:15:36;;;;;;;16.40;12.65;;;;;;;;;;5069877;28;20077;-53
2023/09/25 10:18:03;;;;;;;15.82;11.70;;;;;;;;;;5069466;28;20431;-55
2023/09/25 10:20:32;;;;;;;18.45;11.70;;;;;;;;;;5069179;28;20179;-55
2023/09/25 10:22:59;;;;;;;17.38;12.63;;;;;;;;;;5068663;28;20136;-56
2023/09/25 10:25:26;;;;;;;16.33;12.55;;;;;;;;;;5069268;28;20028;-50
2023/09/25 10:27:52;;;;;;;16.50;13.05;;;;;;;;;;5067890;28;20025;-55
2023/09/25 10:30:18;;;;;;;17.13;12.00;;;;;;;;;;5071147;28;20032;-52
2023/09/25 10:32:55;;;;;;;15.73;12.00;;;;;;;;;;5071546;28;20029;-56
2023/09/25 10:35:40;;;;;;;18.77;12.38;;;;;;;;;;5072724;28;20415;-55
2023/09/25 10:38:09;;;;;;;16.50;12.20;;;;;;;;;;5072906;28;20025;-55
2023/09/25 10:40:36;;;;;;;16.90;12.13;;;;;;;;;;5072701;28;20078;-53
2023/09/25 10:43:02;;;;;;;16.55;12.45;;;;;;;;;;5071645;28;20020;-56
2023/09/25 10:45:28;;;;;;;18.50;12.95;;;;;;;;;;5072969;28;20044;-57
2023/09/25 10:47:54;;;;;;;17.27;12.38;;;;;;;;;;5072606;28;20078;-56
2023/09/25 10:50:20;;;;;;;15.98;12.10;;;;;;;;;;5071895;28;20024;-57
2023/09/25 10:52:46;;;;;;;15.95;12.00;;;;;;;;;;5072807;28;20041;-58
2023/09/25 10:55:12;;;;;;;16.88;12.45;;;;;;;;;;5072946;28;20029;-59
2023/09/25 10:57:39;;;;;;;16.48;13.30;;;;;;;;;;5071957;28;20056;-58
2023/09/25 11:00:09;;;;;;;16.50;12.88;;;;;;;;;;5072719;28;20055;-58
2023/09/25 11:02:35;;;;;;;16.02;12.75;;;;;;;;;;5072666;28;20508;-55
2023/09/25 11:05:04;;;;;;;17.70;12.82;;;;;;;;;;5072920;28;20032;-60
2023/09/25 11:07:30;;;;;;;15.70;12.40;;;;;;;;;;5072823;28;20555;-55
2023/09/25 11:09:56;;;;;;;16.90;12.80;;;;;;;;;;5072177;28;20112;-57
2023/09/25 11:12:22;;;;;;;16.63;13.35;;;;;;;;;;5072445;28;20547;-54
2023/09/25 11:14:48;;;;;;;16.48;13.15;;;;;;;;;;5072208;28;20028;-55
2023/09/25 11:17:14;;;;;;;15.93;12.98;;;;;;;;;;5071991;28;20036;-56
2023/09/25 11:19:47;;;;;;;15.80;13.13;;;;;;;;;;5070724;28;20462;-53
2023/09/25 11:22:13;;;;;;;16.35;13.27;;;;;;;;;;5089587;22;20047;-51
2023/09/25 11:24:39;;;;;;;16.63;13.55;;;;;;;;;;5091581;28;20409;-51
2023/09/25 11:27:08;;;;;;;16.60;13.32;;;;;;;;;;5092078;28;20031;-54
2023/09/25 11:29:38;;;;;;;16.45;13.30;;;;;;;;;;5092413;28;20028;-55
2023/09/25 11:32:04;;;;;;;17.98;14.00;;;;;;;;;;5087573;28;20121;-57
2023/09/25 11:34:31;;;;;;;16.02;13.18;;;;;;;;;;5071104;28;20074;-50
2023/09/25 11:37:00;;;;;;;17.05;13.10;;;;;;;;;;5073146;28;20328;-53
2023/09/25 11:39:26;;;;;;;17.35;13.55;;;;;;;;;;5071790;28;20486;-50
2023/09/25 11:41:52;;;;;;;17.50;14.02;;;;;;;;;;5071956;28;20032;-55
2023/09/25 11:44:18;;;;;;;16.58;13.35;;;;;;;;;;5071904;28;20116;-54
2023/09/25 11:46:44;;;;;;;16.67;13.63;;;;;;;;;;5072871;28;20478;-53
2023/09/25 11:49:12;;;;;;;17.48;13.82;;;;;;;;;;5071975;28;20115;-54
2023/09/25 11:51:38;;;;;;;17.15;13.30;;;;;;;;;;5072478;28;20021;-52
2023/09/25 11:54:04;;;;;;;19.40;14.60;;;;;;;;;;5071989;28;20085;-53
2023/09/25 11:56:30;;;;;;;16.25;13.60;;;;;;;;;;5072594;28;20032;-52
2023/09/25 11:58:57;;;;;;;16.65;13.88;;;;;;;;;;5072120;28;20032;-53
2023/09/25 12:01:23;;;;;;;16.55;13.35;;;;;;;;;;5072222;28;20056;-53
2023/09/25 12:03:49;;;;;;;16.05;13.48;;;;;;;;;;5072535;28;20029;-53
2023/09/25 12:06:15;;;;;;;17.88;13.70;;;;;;;;;;5072745;28;20475;-50
2023/09/25 12:08:41;;;;;;;17.77;13.57;;;;;;;;;;5072399;28;20050;-55
2023/09/25 12:11:07;;;;;;;17.67;13.10;;;;;;;;;;5072186;28;20024;-50
2023/09/25 12:13:33;;;;;;;16.10;13.18;;;;;;;;;;5072377;28;20028;-52
2023/09/25 12:15:59;;;;;;;16.67;14.10;;;;;;;;;;5072099;28;20051;-52
2023/09/25 12:18:25;;;;;;;18.83;14.18;;;;;;;;;;5072127;28;20029;-51
2023/09/25 12:20:51;;;;;;;17.17;13.95;;;;;;;;;;5071716;28;20021;-50
2023/09/25 12:23:17;;;;;;;16.67;13.60;;;;;;;;;;5071872;28;20365;-52
2023/09/25 12:25:45;;;;;;;16.30;13.80;;;;;;;;;;5071819;28;20029;-52
2023/09/25 12:28:11;;;;;;;16.95;14.35;;;;;;;;;;5071293;28;20032;-52
2023/09/25 12:30:37;;;;;;;16.40;13.38;;;;;;;;;;5071899;28;20024;-56
2023/09/25 12:33:04;;;;;;;17.70;14.20;;;;;;;;;;5070662;28;20106;-54
2023/09/25 12:35:30;;;;;;;18.33;14.50;;;;;;;;;;5071811;28;20017;-50
2023/09/25 12:37:57;;;;;;;16.83;13.80;;;;;;;;;;5071960;28;20048;-48
2023/09/25 12:40:23;;;;;;;17.20;14.10;;;;;;;;;;5071139;28;20095;-52
2023/09/25 12:42:49;;;;;;;17.80;13.65;;;;;;;;;;5070519;28;20025;-50
2023/09/25 12:45:15;;;;;;;18.05;14.23;;;;;;;;;;5072000;28;20375;-50
2023/09/25 12:47:41;;;;;;;17.13;13.60;;;;;;;;;;5071726;28;20397;-50
2023/09/25 12:50:07;;;;;;;16.70;13.98;;;;;;;;;;5071451;28;20032;-55
2023/09/25 12:52:33;;;;;;;16.63;13.48;;;;;;;;;;5071524;28;20033;-52
2023/09/25 12:55:01;;;;;;;17.33;13.30;;;;;;;;;;5071313;28;20017;-54
2023/09/25 12:57:27;;;;;;;;;;;;;;;;;;5072174;28;20021;-52
2023/09/25 12:59:53;;;;;;;17.48;13.65;;;;;;;;;;5071688;28;19904;-50
2023/09/25 13:02:20;;;;;;;16.30;13.82;;;;;;;;;;5070239;28;20021;-53
2023/09/25 13:04:48;;;;;;;16.13;13.50;;;;;;;;;;5071571;28;20037;-51
2023/09/25 13:07:14;;;;;;;17.20;14.48;;;;;;;;;;5070592;28;20048;-52
2023/09/25 13:09:40;;;;;;;16.13;13.48;;;;;;;;;;5070974;28;20064;-48
2023/09/25 13:12:06;;;;;;;18.08;13.90;;;;;;;;;;5070985;28;20481;-53
2023/09/25 13:14:32;;;;;;;16.30;13.85;;;;;;;;;;5071370;28;20025;-51
2023/09/25 13:16:58;;;;;;;17.52;13.10;;;;;;;;;;5071527;28;20141;-50
2023/09/25 13:19:24;;;;;;;16.63;14.30;;;;;;;;;;5071587;28;20032;-52
2023/09/25 13:21:50;;;;;;;17.10;13.25;;;;;;;;;;5069486;28;20033;-56
2023/09/25 13:24:16;;;;;;;16.25;13.77;;;;;;;;;;5071307;28;20120;-54
2023/09/25 13:26:42;;;;;;;17.30;13.75;;;;;;;;;;5071441;28;20454;-48
2023/09/25 13:29:09;;;;;;;17.23;15.00;;;;;;;;;;5070070;28;20031;-50
2023/09/25 13:31:35;;;;;;;16.23;13.90;;;;;;;;;;5069199;28;20474;-48
2023/09/25 13:34:01;;;;;;;17.65;14.60;;;;;;;;;;5071382;28;20032;-50
2023/09/25 13:36:28;;;;;;;18.08;14.48;;;;;;;;;;5071259;28;20039;-49
2023/09/25 13:38:56;;;;;;;16.05;14.02;;;;;;;;;;5070942;28;20395;-50
2023/09/25 13:41:22;;;;;;;16.70;13.90;;;;;;;;;;5070992;28;20032;-51
2023/09/25 13:43:48;;;;;;;17.83;14.60;;;;;;;;;;5070855;28;20387;-48
2023/09/25 13:46:14;;;;;;;17.73;14.20;;;;;;;;;;5071072;28;20021;-50
2023/09/25 13:48:40;;;;;;;17.27;14.25;;;;;;;;;;5070954;28;20033;-54
2023/09/25 13:51:06;;;;;;;16.52;13.57;;;;;;;;;;5070815;28;20029;-48
2023/09/25 13:53:34;;;;;;;18.77;14.30;;;;;;;;;;5070713;28;20028;-50
2023/09/25 13:56:01;;;;;;;16.60;14.40;;;;;;;;;;5070878;28;20028;-53
2023/09/25 13:58:27;;;;;;;17.38;14.90;;;;;;;;;;5067576;28;20040;-52
2023/09/25 14:00:54;;;;;;;18.42;14.90;;;;;;;;;;5068664;28;20021;-49
2023/09/25 14:03:21;;;;;;;17.58;13.90;;;;;;;;;;5070288;28;20066;-48
2023/09/25 14:05:47;;;;;;;17.08;14.05;;;;;;;;;;5073762;28;20112;-54
2023/09/25 14:08:13;;;;;;;17.48;14.98;;;;;;;;;;5074835;28;20060;-53
2023/09/25 14:10:39;;;;;;;19.92;14.77;;;;;;;;;;5074669;28;20490;-51
2023/09/25 14:13:06;;;;;;;16.98;13.95;;;;;;;;;;5074757;28;20544;-53
2023/09/25 14:15:33;;;;;;;16.83;14.50;;;;;;;;;;5074575;28;20043;-52